Legend Of The Seas — C6SL5 — position and weather

sailwx.info

Track history (hours):
 
Tides and Currents Weather Stations Pressure Air Temp Water Temp Dewpoint Dewpoint Depression Visibility Wind Speed Wind Dir Waves Ship Positions

Legend Of The Seas

Operator: Royal Caribbean Cruises Ltd

Last reported at 2019-Sep-22 00:00 UTC. Time now 2019-Sep-22 00:22 UTC.
Position N 39°04' E 002°56'.

Type: Passenger vessel. MMSI: 311378000.

Date/timePositionNaut miles runAvg speedWind from/ knotsBaromVisibWave heightAir tempDewpointWater temp
2019-Sep-22 00:00N 39°04' E 002°56'510.3
2019-Sep-21 23:30N 39°07' E 002°51'510.6
2019-Sep-21 23:00N 39°11' E 002°48'510.5
2019-Sep-21 22:30N 39°16' E 002°44'510.4
2019-Sep-21 22:00N 39°21' E 002°42'510.5
2019-Sep-21 21:30N 39°26' E 002°40'510.8
2019-Sep-21 21:00N 39°31' E 002°39'2 4.2
2019-Sep-21 20:30N 39°33' E 002°38'0 0.1
2019-Sep-21 19:55N 39°33' E 002°38'0 0.0
2019-Sep-21 19:28N 39°33' E 002°38'0 0.0
2019-Sep-21 18:55N 39°33' E 002°38'0 0.0
2019-Sep-21 18:28N 39°33' E 002°38'0 0.0
2019-Sep-21 17:58N 39°33' E 002°38'0 0.0
2019-Sep-21 17:28N 39°33' E 002°38'0 0.0
2019-Sep-21 16:58N 39°33' E 002°38'0 0.0
2019-Sep-21 16:28N 39°33' E 002°38'0 0.0
2019-Sep-21 15:58N 39°33' E 002°38'0 0.0
2019-Sep-21 15:28N 39°33' E 002°38'0 0.0
2019-Sep-21 14:58N 39°33' E 002°38'0 0.0
2019-Sep-21 14:28N 39°33' E 002°38'0 0.0
2019-Sep-21 13:58N 39°33' E 002°38'0 0.0
2019-Sep-21 13:28N 39°33' E 002°38'0 0.0
2019-Sep-21 12:58N 39°33' E 002°38'0 0.0
2019-Sep-21 12:25N 39°33' E 002°38'0 0.0
2019-Sep-21 11:58N 39°33' E 002°38'0 0.0
2019-Sep-21 11:28N 39°33' E 002°38'0 0.0
2019-Sep-21 10:58N 39°33' E 002°38'0 0.0
2019-Sep-21 10:28N 39°33' E 002°38'0 0.0
2019-Sep-21 09:58N 39°33' E 002°38'0 0.0
2019-Sep-21 09:28N 39°33' E 002°38'0 0.0
2019-Sep-21 08:58N 39°33' E 002°38'0 0.0
2019-Sep-21 08:28N 39°33' E 002°38'0 0.0
2019-Sep-21 07:58N 39°33' E 002°38'0 0.0
2019-Sep-21 07:28N 39°33' E 002°38'0 0.0
2019-Sep-21 06:58N 39°33' E 002°38'0 0.0
2019-Sep-21 06:28N 39°33' E 002°38'0 0.0
2019-Sep-21 05:58N 39°33' E 002°38'0 0.0
2019-Sep-21 05:28N 39°33' E 002°38'0 0.0
2019-Sep-21 04:58N 39°33' E 002°38'0 0.0
2019-Sep-21 04:28N 39°33' E 002°38'0 0.0
2019-Sep-21 03:58N 39°33' E 002°38'0 0.0
2019-Sep-21 03:30N 39°33' E 002°38'2 4.6
2019-Sep-21 03:00N 39°31' E 002°38'713.5
2019-Sep-21 02:30N 39°25' E 002°33'613.0
2019-Sep-21 02:00N 39°26' E 002°24'5613.1
2019-Sep-20 21:46N 40°21' E 002°32'6715.3
2019-Sep-20 17:22N 41°26' E 002°57'193 8.5
2019-Sep-19 18:40N 43°02' E 006°43'316.7
2019-Sep-19 18:29N 43°04' E 006°46'816.5
2019-Sep-19 18:00N 43°11' E 006°52'816.3
2019-Sep-19 17:30N 43°18' E 006°58'816.2
2019-Sep-19 17:00N 43°24' E 007°04'816.1
2019-Sep-19 16:31N 43°31' E 007°10'815.2
2019-Sep-19 16:00N 43°38' E 007°15'5 9.3
2019-Sep-19 15:30N 43°41' E 007°19'0 0.1
2019-Sep-19 15:00N 43°41' E 007°19'0 0.0
2019-Sep-19 14:30N 43°41' E 007°19'0 0.0
2019-Sep-19 14:00N 43°41' E 007°19'0 0.0
2019-Sep-19 13:30N 43°41' E 007°19'0 0.0
2019-Sep-19 13:00N 43°41' E 007°19'0 0.0
2019-Sep-19 12:27N 43°41' E 007°19'0 0.0
2019-Sep-19 12:00N 43°41' E 007°19'0 0.0
2019-Sep-19 11:30N 43°41' E 007°19'0 0.0
2019-Sep-19 11:00N 43°41' E 007°19'0 0.0
2019-Sep-19 10:30N 43°41' E 007°19'0 0.0
2019-Sep-19 10:00N 43°41' E 007°19'0 0.0
2019-Sep-19 09:30N 43°41' E 007°19'0 0.0
2019-Sep-19 09:00N 43°41' E 007°19'0 0.0
2019-Sep-19 08:30N 43°41' E 007°19'0 0.1
2019-Sep-19 08:00N 43°41' E 007°19'0 0.1
2019-Sep-19 07:30N 43°41' E 007°19'0 0.0
2019-Sep-19 07:00N 43°41' E 007°19'0 0.0
2019-Sep-19 06:30N 43°41' E 007°19'0 0.0
2019-Sep-19 06:00N 43°41' E 007°19'0 0.0
2019-Sep-19 05:27N 43°41' E 007°19'0 0.0
2019-Sep-19 05:00N 43°41' E 007°19'3 6.7
2019-Sep-19 04:30N 43°39' E 007°22'713.8
2019-Sep-19 04:00N 43°38' E 007°32'714.0
2019-Sep-19 03:30N 43°38' E 007°41'714.2
2019-Sep-19 03:00N 43°37' E 007°51'714.2
2019-Sep-19 02:30N 43°37' E 008°01'714.3
2019-Sep-19 02:00N 43°36' E 008°11'714.4
2019-Sep-19 01:30N 43°36' E 008°21'714.3
2019-Sep-19 01:00N 43°36' E 008°30'715.0
2019-Sep-19 00:30N 43°35' E 008°41'815.9
2019-Sep-19 00:00N 43°35' E 008°52'815.9
2019-Sep-18 23:31N 43°34' E 009°03'815.7
2019-Sep-18 23:01N 43°34' E 009°13'714.4
2019-Sep-18 22:30N 43°34' E 009°23'0 1.0
2019-Sep-18 22:00N 43°34' E 009°24'0 0.7
2019-Sep-18 21:30N 43°34' E 009°24'0 0.6
2019-Sep-18 21:00N 43°34' E 009°25'0 0.5
2019-Sep-18 20:30N 43°34' E 009°25'0 0.6
2019-Sep-18 20:00N 43°34' E 009°26'1 1.2
2019-Sep-18 19:30N 43°34' E 009°26'612.9
2019-Sep-18 19:00N 43°35' E 009°35'815.9
2019-Sep-18 18:30N 43°35' E 009°46'815.9
2019-Sep-18 18:00N 43°31' E 009°56'815.6
2019-Sep-18 17:30N 43°30' E 010°07'714.4
2019-Sep-18 17:00N 43°32' E 010°16'1 2.7
2019-Sep-18 16:28N 43°33' E 010°18'0 0.0
2019-Sep-18 15:58N 43°33' E 010°18'0 0.0
2019-Sep-18 15:28N 43°33' E 010°18'0 0.0
2019-Sep-18 14:58N 43°33' E 010°18'0 0.0
2019-Sep-18 14:28N 43°33' E 010°18'0 0.0
2019-Sep-18 13:55N 43°33' E 010°18'0 0.0
2019-Sep-18 13:28N 43°33' E 010°18'0 0.0
2019-Sep-18 12:58N 43°33' E 010°18'0 0.0
2019-Sep-18 12:28N 43°33' E 010°18'0 0.0
2019-Sep-18 11:58N 43°33' E 010°18'0 0.0
2019-Sep-18 11:28N 43°33' E 010°18'0 0.0
2019-Sep-18 10:58N 43°33' E 010°18'0 0.0
2019-Sep-18 10:28N 43°33' E 010°18'0 0.0
2019-Sep-18 09:58N 43°33' E 010°18'0 0.0
2019-Sep-18 09:28N 43°33' E 010°18'0 0.0
2019-Sep-18 08:58N 43°33' E 010°18'0 0.0
2019-Sep-18 08:28N 43°33' E 010°18'0 0.0
2019-Sep-18 07:58N 43°33' E 010°18'0 0.0
2019-Sep-18 07:28N 43°33' E 010°18'0 0.0
2019-Sep-18 06:58N 43°33' E 010°18'0 0.0
2019-Sep-18 06:28N 43°33' E 010°18'0 0.0
2019-Sep-18 05:58N 43°33' E 010°18'1 1.5
2019-Sep-18 05:30N 43°33' E 010°17'3 6.1
2019-Sep-18 05:00N 43°30' E 010°14'713.9
2019-Sep-18 04:30N 43°24' E 010°11'714.3
2019-Sep-18 04:00N 43°17' E 010°08'714.2
2019-Sep-18 03:30N 43°10' E 010°05'714.2
2019-Sep-18 03:00N 43°04' E 010°02'915.3
2019-Sep-18 02:27N 42°55' E 009°58'3216.0
2019-Sep-18 00:28N 42°24' E 009°52'815.7
2019-Sep-17 23:59N 42°16' E 009°53'1915.6
2019-Sep-17 22:47N 41°58' E 009°51'615.7
2019-Sep-17 22:23N 41°52' E 009°51'5 3.6
2019-Sep-17 20:55N 41°46' E 009°51'0 0.1
2019-Sep-17 20:10N 41°46' E 009°51'0 0.2
2019-Sep-17 20:00N 41°46' E 009°51'0 0.3
2019-Sep-17 19:26N 41°46' E 009°51'5 4.8
2019-Sep-17 18:28N 41°42' E 009°51'1015.6
2019-Sep-17 17:50N 41°32' E 009°50'35 3.0
2019-Sep-17 05:54N 40°57' E 009°40'715.5
2019-Sep-17 05:26N 40°58' E 009°50'715.8
2019-Sep-17 04:59N 40°58' E 009°59'815.6
2019-Sep-17 04:29N 40°57' E 010°09'715.4
2019-Sep-17 04:00N 40°57' E 010°19'815.4
2019-Sep-17 03:30N 40°55' E 010°29'1715.5
2019-Sep-17 02:23N 40°53' E 010°52'615.7
2019-Sep-17 01:59N 40°52' E 011°00'816.0
2019-Sep-17 01:30N 40°52' E 011°10'816.1
2019-Sep-17 01:00N 40°51' E 011°21'1016.0
2019-Sep-17 00:23N 40°49' E 011°34'615.7
2019-Sep-17 00:00N 40°49' E 011°42'815.8
2019-Sep-16 23:30N 40°48' E 011°52'815.8
2019-Sep-16 23:00N 40°47' E 012°03'815.6
2019-Sep-16 22:30N 40°46' E 012°13'5915.5
2019-Sep-16 18:44N 40°39' E 013°29'915.9
2019-Sep-16 18:12N 40°38' E 013°41'316.0
2019-Sep-16 18:00N 40°38' E 013°45'815.8
2019-Sep-16 17:30N 40°37' E 013°55'815.1
2019-Sep-16 17:00N 40°38' E 014°05'815.7
2019-Sep-16 16:30N 40°44' E 014°12'713.8
2019-Sep-16 16:00N 40°50' E 014°17'1 2.1
2019-Sep-16 15:29N 40°50' E 014°15'0 0.0
2019-Sep-16 14:59N 40°50' E 014°15'0 0.0
2019-Sep-16 14:20N 40°50' E 014°15'0 0.0
2019-Sep-16 13:50N 40°50' E 014°15'0 0.0
2019-Sep-16 13:17N 40°50' E 014°15'0 0.0
2019-Sep-16 12:50N 40°50' E 014°15'0 0.0
2019-Sep-16 12:20N 40°50' E 014°15'0 0.0
2019-Sep-16 11:50N 40°50' E 014°15'0 0.0
2019-Sep-16 11:23N 40°50' E 014°15'0 0.0
2019-Sep-16 10:53N 40°50' E 014°15'0 0.0
2019-Sep-16 10:20N 40°50' E 014°15'0 0.0
2019-Sep-16 09:50N 40°50' E 014°15'0 0.0
2019-Sep-16 09:26N 40°50' E 014°15'0 0.0
2019-Sep-16 08:56N 40°50' E 014°15'0 0.0
2019-Sep-16 08:26N 40°50' E 014°15'0 0.0
2019-Sep-16 07:59N 40°50' E 014°15'0 0.0
2019-Sep-16 07:29N 40°50' E 014°15'0 0.0
2019-Sep-16 06:59N 40°50' E 014°15'0 0.0
2019-Sep-16 06:29N 40°50' E 014°15'0 0.0
2019-Sep-16 05:59N 40°50' E 014°15'0 0.6
2019-Sep-16 05:31N 40°50' E 014°16'4 7.9
2019-Sep-16 05:00N 40°46' E 014°15'714.8
2019-Sep-16 04:30N 40°40' E 014°11'714.1
2019-Sep-16 04:00N 40°35' E 014°04'714.3
2019-Sep-16 03:30N 40°31' E 013°56'714.5
2019-Sep-16 03:00N 40°28' E 013°47'815.2
2019-Sep-16 02:30N 40°25' E 013°38'816.1
2019-Sep-16 02:00N 40°21' E 013°29'816.1
2019-Sep-16 01:30N 40°17' E 013°20'815.8
2019-Sep-16 01:01N 40°15' E 013°10'916.0
2019-Sep-16 00:28N 40°11' E 012°60'25018.0
2019-Sep-15 10:32N 38°45' E 007°55'118.7
2019-Sep-15 10:30N 38°45' E 007°54'15817.8
2019-Sep-15 01:39N 39°05' E 004°33'5817.3
2019-Sep-14 22:17N 39°12' E 003°19'518.0
2019-Sep-14 22:00N 39°13' E 003°12'918.3
2019-Sep-14 21:31N 39°15' E 003°01'918.5
2019-Sep-14 21:00N 39°19' E 002°50'918.0
2019-Sep-14 20:31N 39°25' E 002°42'816.6
2019-Sep-14 20:00N 39°33' E 002°39'1 1.5
2019-Sep-14 19:30N 39°33' E 002°38'0 0.0
2019-Sep-14 19:00N 39°33' E 002°38'0 0.0
2019-Sep-14 18:30N 39°33' E 002°38'0 0.0
2019-Sep-14 18:00N 39°33' E 002°38'0 0.0
2019-Sep-14 17:30N 39°33' E 002°38'0 0.0
2019-Sep-14 17:00N 39°33' E 002°38'0 0.0
2019-Sep-14 16:30N 39°33' E 002°38'0 0.0
2019-Sep-14 16:00N 39°33' E 002°38'0 0.0
2019-Sep-14 15:30N 39°33' E 002°38'0 0.0
2019-Sep-14 14:51N 39°33' E 002°38'0 0.0
2019-Sep-14 14:30N 39°33' E 002°38'0 0.0
2019-Sep-14 14:00N 39°33' E 002°38'0 0.0
2019-Sep-14 13:30N 39°33' E 002°38'0 0.0
2019-Sep-14 13:00N 39°33' E 002°38'0 0.0
2019-Sep-14 12:30N 39°33' E 002°38'0 0.0
2019-Sep-14 12:00N 39°33' E 002°38'0 0.0
2019-Sep-14 11:30N 39°33' E 002°38'0 0.0
2019-Sep-14 11:00N 39°33' E 002°38'0 0.0
2019-Sep-14 10:30N 39°33' E 002°38'0 0.0
2019-Sep-14 10:00N 39°33' E 002°38'0 0.0
2019-Sep-14 09:30N 39°33' E 002°38'0 0.0
2019-Sep-14 09:00N 39°33' E 002°38'0 0.0
2019-Sep-14 08:30N 39°33' E 002°38'0 0.0
2019-Sep-14 08:00N 39°33' E 002°38'0 0.0
2019-Sep-14 07:30N 39°33' E 002°38'0 0.0
2019-Sep-14 06:54N 39°33' E 002°38'0 0.0
2019-Sep-14 06:30N 39°33' E 002°38'0 0.0
2019-Sep-14 06:00N 39°33' E 002°38'0 0.0
2019-Sep-14 05:30N 39°33' E 002°38'0 0.0
2019-Sep-14 05:00N 39°33' E 002°38'0 0.0
2019-Sep-14 04:30N 39°33' E 002°38'0 0.0
2019-Sep-14 03:54N 39°33' E 002°38'0 1.0
2019-Sep-14 03:30N 39°33' E 002°38'3 5.9
2019-Sep-14 03:00N 39°30' E 002°37'816.4
2019-Sep-14 02:30N 39°25' E 002°29'714.6
2019-Sep-14 02:00N 39°29' E 002°21'3813.8
2019-Sep-13 23:16N 40°06' E 002°28'414.9
2019-Sep-13 23:00N 40°10' E 002°30'1316.0
2019-Sep-13 22:11N 40°22' E 002°35'816.8
2019-Sep-13 21:44N 40°29' E 002°39'1416.7
2019-Sep-13 20:54N 40°42' E 002°45'716.7
2019-Sep-13 20:30N 40°49' E 002°48'816.6
2019-Sep-13 20:01N 40°56' E 002°51'816.6
2019-Sep-13 19:31N 41°04' E 002°54'816.1
2019-Sep-13 19:01N 41°12' E 002°57'816.6
2019-Sep-13 18:31N 41°20' E 003°00'917.5
2019-Sep-13 18:01N 41°28' E 003°04'816.8
2019-Sep-13 17:30N 41°36' E 003°08'816.1
2019-Sep-13 17:01N 41°44' E 003°13'816.0
2019-Sep-13 16:30N 41°51' E 003°15'84 5.1
2019-Sep-13 00:01N 41°49' E 005°08'014.1
2019-Sep-13 00:00N 41°49' E 005°08'815.5
2019-Sep-12 23:30N 41°47' E 005°18'815.5
2019-Sep-12 23:00N 41°45' E 005°28'1015.5
2019-Sep-12 22:24N 41°43' E 005°40'615.7
2019-Sep-12 22:00N 41°41' E 005°48'815.7
2019-Sep-12 21:31N 41°39' E 005°58'815.6
2019-Sep-12 21:00N 41°37' E 006°08'815.8
2019-Sep-12 20:30N 41°35' E 006°18'815.8
2019-Sep-12 20:00N 41°33' E 006°29'815.8
2019-Sep-12 19:30N 41°31' E 006°39'815.8
2019-Sep-12 19:00N 41°29' E 006°49'1015.8
2019-Sep-12 18:21N 41°26' E 007°02'818.0
2019-Sep-12 17:54N 41°24' E 007°13'819.4
2019-Sep-12 17:30N 41°22' E 007°23'2419.6
2019-Sep-12 16:18N 41°16' E 007°53'719.8
2019-Sep-12 15:58N 41°14' E 008°02'919.9
2019-Sep-12 15:31N 41°12' E 008°13'1019.1
2019-Sep-12 15:01N 41°08' E 008°25'1618.1
2019-Sep-12 14:07N 40°52' E 008°24'1 7.9
2019-Sep-12 13:58N 40°51' E 008°23'1 1.5
2019-Sep-12 13:25N 40°50' E 008°23'0 0.0
2019-Sep-12 12:55N 40°50' E 008°23'0 0.0
2019-Sep-12 12:28N 40°50' E 008°23'0 0.0
2019-Sep-12 11:58N 40°50' E 008°23'0 0.0
2019-Sep-12 11:28N 40°50' E 008°23'0 0.0
2019-Sep-12 10:58N 40°50' E 008°23'0 0.0
2019-Sep-12 10:28N 40°50' E 008°23'0 0.0
2019-Sep-12 09:43N 40°50' E 008°23'0 0.0
2019-Sep-12 08:31N 40°50' E 008°23'0 0.0
2019-Sep-12 08:10N 40°50' E 008°23'0 0.0
2019-Sep-12 07:55N 40°50' E 008°23'0 0.0
2019-Sep-12 07:28N 40°50' E 008°23'0 0.0
2019-Sep-12 06:58N 40°50' E 008°23'1 1.1
2019-Sep-12 06:30N 40°51' E 008°23'5 9.8
2019-Sep-12 06:00N 40°54' E 008°28'815.5
2019-Sep-12 05:30N 40°59' E 008°36'815.4
2019-Sep-12 05:00N 41°04' E 008°43'814.8
2019-Sep-12 04:30N 41°09' E 008°51'814.2
2019-Sep-12 03:57N 41°15' E 008°57'715.6
2019-Sep-12 03:29N 41°19' E 009°06'3113.2
2019-Sep-12 01:08N 41°35' E 009°41'  
Track history (hours):
 
Tides and Currents Weather Stations Pressure Air Temp Water Temp Dewpoint Dewpoint Depression Visibility Wind Speed Wind Dir Waves Ship Positions

Legend Of The Seas

Operator: Royal Caribbean Cruises Ltd

Last reported at 2019-Sep-22 00:00 UTC. Time now 2019-Sep-22 00:22 UTC.
Position N 39°04' E 002°56'.

Type: Passenger vessel. MMSI: 311378000.

Date/timePositionNaut miles runAvg speedWind from/ knotsBaromVisibWave heightAir tempDewpointWater temp
2019-Sep-22 00:00N 39°04' E 002°56'510.3
2019-Sep-21 23:30N 39°07' E 002°51'510.6
2019-Sep-21 23:00N 39°11' E 002°48'510.5
2019-Sep-21 22:30N 39°16' E 002°44'510.4
2019-Sep-21 22:00N 39°21' E 002°42'510.5
2019-Sep-21 21:30N 39°26' E 002°40'510.8
2019-Sep-21 21:00N 39°31' E 002°39'2 4.2
2019-Sep-21 20:30N 39°33' E 002°38'0 0.1
2019-Sep-21 19:55N 39°33' E 002°38'0 0.0
2019-Sep-21 19:28N 39°33' E 002°38'0 0.0
2019-Sep-21 18:55N 39°33' E 002°38'0 0.0
2019-Sep-21 18:28N 39°33' E 002°38'0 0.0
2019-Sep-21 17:58N 39°33' E 002°38'0 0.0
2019-Sep-21 17:28N 39°33' E 002°38'0 0.0
2019-Sep-21 16:58N 39°33' E 002°38'0 0.0
2019-Sep-21 16:28N 39°33' E 002°38'0 0.0
2019-Sep-21 15:58N 39°33' E 002°38'0 0.0
2019-Sep-21 15:28N 39°33' E 002°38'0 0.0
2019-Sep-21 14:58N 39°33' E 002°38'0 0.0
2019-Sep-21 14:28N 39°33' E 002°38'0 0.0
2019-Sep-21 13:58N 39°33' E 002°38'0 0.0
2019-Sep-21 13:28N 39°33' E 002°38'0 0.0
2019-Sep-21 12:58N 39°33' E 002°38'0 0.0
2019-Sep-21 12:25N 39°33' E 002°38'0 0.0
2019-Sep-21 11:58N 39°33' E 002°38'0 0.0
2019-Sep-21 11:28N 39°33' E 002°38'0 0.0
2019-Sep-21 10:58N 39°33' E 002°38'0 0.0
2019-Sep-21 10:28N 39°33' E 002°38'0 0.0
2019-Sep-21 09:58N 39°33' E 002°38'0 0.0
2019-Sep-21 09:28N 39°33' E 002°38'0 0.0
2019-Sep-21 08:58N 39°33' E 002°38'0 0.0
2019-Sep-21 08:28N 39°33' E 002°38'0 0.0
2019-Sep-21 07:58N 39°33' E 002°38'0 0.0
2019-Sep-21 07:28N 39°33' E 002°38'0 0.0
2019-Sep-21 06:58N 39°33' E 002°38'0 0.0
2019-Sep-21 06:28N 39°33' E 002°38'0 0.0
2019-Sep-21 05:58N 39°33' E 002°38'0 0.0
2019-Sep-21 05:28N 39°33' E 002°38'0 0.0
2019-Sep-21 04:58N 39°33' E 002°38'0 0.0
2019-Sep-21 04:28N 39°33' E 002°38'0 0.0
2019-Sep-21 03:58N 39°33' E 002°38'0 0.0
2019-Sep-21 03:30N 39°33' E 002°38'2 4.6
2019-Sep-21 03:00N 39°31' E 002°38'713.5
2019-Sep-21 02:30N 39°25' E 002°33'613.0
2019-Sep-21 02:00N 39°26' E 002°24'5613.1
2019-Sep-20 21:46N 40°21' E 002°32'6715.3
2019-Sep-20 17:22N 41°26' E 002°57'193 8.5
2019-Sep-19 18:40N 43°02' E 006°43'316.7
2019-Sep-19 18:29N 43°04' E 006°46'816.5
2019-Sep-19 18:00N 43°11' E 006°52'816.3
2019-Sep-19 17:30N 43°18' E 006°58'816.2
2019-Sep-19 17:00N 43°24' E 007°04'816.1
2019-Sep-19 16:31N 43°31' E 007°10'815.2
2019-Sep-19 16:00N 43°38' E 007°15'5 9.3
2019-Sep-19 15:30N 43°41' E 007°19'0 0.1
2019-Sep-19 15:00N 43°41' E 007°19'0 0.0
2019-Sep-19 14:30N 43°41' E 007°19'0 0.0
2019-Sep-19 14:00N 43°41' E 007°19'0 0.0
2019-Sep-19 13:30N 43°41' E 007°19'0 0.0
2019-Sep-19 13:00N 43°41' E 007°19'0 0.0
2019-Sep-19 12:27N 43°41' E 007°19'0 0.0
2019-Sep-19 12:00N 43°41' E 007°19'0 0.0
2019-Sep-19 11:30N 43°41' E 007°19'0 0.0
2019-Sep-19 11:00N 43°41' E 007°19'0 0.0
2019-Sep-19 10:30N 43°41' E 007°19'0 0.0
2019-Sep-19 10:00N 43°41' E 007°19'0 0.0
2019-Sep-19 09:30N 43°41' E 007°19'0 0.0
2019-Sep-19 09:00N 43°41' E 007°19'0 0.0
2019-Sep-19 08:30N 43°41' E 007°19'0 0.1
2019-Sep-19 08:00N 43°41' E 007°19'0 0.1
2019-Sep-19 07:30N 43°41' E 007°19'0 0.0
2019-Sep-19 07:00N 43°41' E 007°19'0 0.0
2019-Sep-19 06:30N 43°41' E 007°19'0 0.0
2019-Sep-19 06:00N 43°41' E 007°19'0 0.0
2019-Sep-19 05:27N 43°41' E 007°19'0 0.0
2019-Sep-19 05:00N 43°41' E 007°19'3 6.7
2019-Sep-19 04:30N 43°39' E 007°22'713.8
2019-Sep-19 04:00N 43°38' E 007°32'714.0
2019-Sep-19 03:30N 43°38' E 007°41'714.2
2019-Sep-19 03:00N 43°37' E 007°51'714.2
2019-Sep-19 02:30N 43°37' E 008°01'714.3
2019-Sep-19 02:00N 43°36' E 008°11'714.4
2019-Sep-19 01:30N 43°36' E 008°21'714.3
2019-Sep-19 01:00N 43°36' E 008°30'715.0
2019-Sep-19 00:30N 43°35' E 008°41'815.9
2019-Sep-19 00:00N 43°35' E 008°52'815.9
2019-Sep-18 23:31N 43°34' E 009°03'815.7
2019-Sep-18 23:01N 43°34' E 009°13'714.4
2019-Sep-18 22:30N 43°34' E 009°23'0 1.0
2019-Sep-18 22:00N 43°34' E 009°24'0 0.7
2019-Sep-18 21:30N 43°34' E 009°24'0 0.6
2019-Sep-18 21:00N 43°34' E 009°25'0 0.5
2019-Sep-18 20:30N 43°34' E 009°25'0 0.6
2019-Sep-18 20:00N 43°34' E 009°26'1 1.2
2019-Sep-18 19:30N 43°34' E 009°26'612.9
2019-Sep-18 19:00N 43°35' E 009°35'815.9
2019-Sep-18 18:30N 43°35' E 009°46'815.9
2019-Sep-18 18:00N 43°31' E 009°56'815.6
2019-Sep-18 17:30N 43°30' E 010°07'714.4
2019-Sep-18 17:00N 43°32' E 010°16'1 2.7
2019-Sep-18 16:28N 43°33' E 010°18'0 0.0
2019-Sep-18 15:58N 43°33' E 010°18'0 0.0
2019-Sep-18 15:28N 43°33' E 010°18'0 0.0
2019-Sep-18 14:58N 43°33' E 010°18'0 0.0
2019-Sep-18 14:28N 43°33' E 010°18'0 0.0
2019-Sep-18 13:55N 43°33' E 010°18'0 0.0
2019-Sep-18 13:28N 43°33' E 010°18'0 0.0
2019-Sep-18 12:58N 43°33' E 010°18'0 0.0
2019-Sep-18 12:28N 43°33' E 010°18'0 0.0
2019-Sep-18 11:58N 43°33' E 010°18'0 0.0
2019-Sep-18 11:28N 43°33' E 010°18'0 0.0
2019-Sep-18 10:58N 43°33' E 010°18'0 0.0
2019-Sep-18 10:28N 43°33' E 010°18'0 0.0
2019-Sep-18 09:58N 43°33' E 010°18'0 0.0
2019-Sep-18 09:28N 43°33' E 010°18'0 0.0
2019-Sep-18 08:58N 43°33' E 010°18'0 0.0
2019-Sep-18 08:28N 43°33' E 010°18'0 0.0
2019-Sep-18 07:58N 43°33' E 010°18'0 0.0
2019-Sep-18 07:28N 43°33' E 010°18'0 0.0
2019-Sep-18 06:58N 43°33' E 010°18'0 0.0
2019-Sep-18 06:28N 43°33' E 010°18'0 0.0
2019-Sep-18 05:58N 43°33' E 010°18'1 1.5
2019-Sep-18 05:30N 43°33' E 010°17'3 6.1
2019-Sep-18 05:00N 43°30' E 010°14'713.9
2019-Sep-18 04:30N 43°24' E 010°11'714.3
2019-Sep-18 04:00N 43°17' E 010°08'714.2
2019-Sep-18 03:30N 43°10' E 010°05'714.2
2019-Sep-18 03:00N 43°04' E 010°02'915.3
2019-Sep-18 02:27N 42°55' E 009°58'3216.0
2019-Sep-18 00:28N 42°24' E 009°52'815.7
2019-Sep-17 23:59N 42°16' E 009°53'1915.6
2019-Sep-17 22:47N 41°58' E 009°51'615.7
2019-Sep-17 22:23N 41°52' E 009°51'5 3.6
2019-Sep-17 20:55N 41°46' E 009°51'0 0.1
2019-Sep-17 20:10N 41°46' E 009°51'0 0.2
2019-Sep-17 20:00N 41°46' E 009°51'0 0.3
2019-Sep-17 19:26N 41°46' E 009°51'5 4.8
2019-Sep-17 18:28N 41°42' E 009°51'1015.6
2019-Sep-17 17:50N 41°32' E 009°50'35 3.0
2019-Sep-17 05:54N 40°57' E 009°40'715.5
2019-Sep-17 05:26N 40°58' E 009°50'715.8
2019-Sep-17 04:59N 40°58' E 009°59'815.6
2019-Sep-17 04:29N 40°57' E 010°09'715.4
2019-Sep-17 04:00N 40°57' E 010°19'815.4
2019-Sep-17 03:30N 40°55' E 010°29'1715.5
2019-Sep-17 02:23N 40°53' E 010°52'615.7
2019-Sep-17 01:59N 40°52' E 011°00'816.0
2019-Sep-17 01:30N 40°52' E 011°10'816.1
2019-Sep-17 01:00N 40°51' E 011°21'1016.0
2019-Sep-17 00:23N 40°49' E 011°34'615.7
2019-Sep-17 00:00N 40°49' E 011°42'815.8
2019-Sep-16 23:30N 40°48' E 011°52'815.8
2019-Sep-16 23:00N 40°47' E 012°03'815.6
2019-Sep-16 22:30N 40°46' E 012°13'5915.5
2019-Sep-16 18:44N 40°39' E 013°29'915.9
2019-Sep-16 18:12N 40°38' E 013°41'316.0
2019-Sep-16 18:00N 40°38' E 013°45'815.8
2019-Sep-16 17:30N 40°37' E 013°55'815.1
2019-Sep-16 17:00N 40°38' E 014°05'815.7
2019-Sep-16 16:30N 40°44' E 014°12'713.8
2019-Sep-16 16:00N 40°50' E 014°17'1 2.1
2019-Sep-16 15:29N 40°50' E 014°15'0 0.0
2019-Sep-16 14:59N 40°50' E 014°15'0 0.0
2019-Sep-16 14:20N 40°50' E 014°15'0 0.0
2019-Sep-16 13:50N 40°50' E 014°15'0 0.0
2019-Sep-16 13:17N 40°50' E 014°15'0 0.0
2019-Sep-16 12:50N 40°50' E 014°15'0 0.0
2019-Sep-16 12:20N 40°50' E 014°15'0 0.0
2019-Sep-16 11:50N 40°50' E 014°15'0 0.0
2019-Sep-16 11:23N 40°50' E 014°15'0 0.0
2019-Sep-16 10:53N 40°50' E 014°15'0 0.0
2019-Sep-16 10:20N 40°50' E 014°15'0 0.0
2019-Sep-16 09:50N 40°50' E 014°15'0 0.0
2019-Sep-16 09:26N 40°50' E 014°15'0 0.0
2019-Sep-16 08:56N 40°50' E 014°15'0 0.0
2019-Sep-16 08:26N 40°50' E 014°15'0 0.0
2019-Sep-16 07:59N 40°50' E 014°15'0 0.0
2019-Sep-16 07:29N 40°50' E 014°15'0 0.0
2019-Sep-16 06:59N 40°50' E 014°15'0 0.0
2019-Sep-16 06:29N 40°50' E 014°15'0 0.0
2019-Sep-16 05:59N 40°50' E 014°15'0 0.6
2019-Sep-16 05:31N 40°50' E 014°16'4 7.9
2019-Sep-16 05:00N 40°46' E 014°15'714.8
2019-Sep-16 04:30N 40°40' E 014°11'714.1
2019-Sep-16 04:00N 40°35' E 014°04'714.3
2019-Sep-16 03:30N 40°31' E 013°56'714.5
2019-Sep-16 03:00N 40°28' E 013°47'815.2
2019-Sep-16 02:30N 40°25' E 013°38'816.1
2019-Sep-16 02:00N 40°21' E 013°29'816.1
2019-Sep-16 01:30N 40°17' E 013°20'815.8
2019-Sep-16 01:01N 40°15' E 013°10'916.0
2019-Sep-16 00:28N 40°11' E 012°60'25018.0
2019-Sep-15 10:32N 38°45' E 007°55'118.7
2019-Sep-15 10:30N 38°45' E 007°54'15817.8
2019-Sep-15 01:39N 39°05' E 004°33'5817.3
2019-Sep-14 22:17N 39°12' E 003°19'518.0
2019-Sep-14 22:00N 39°13' E 003°12'918.3
2019-Sep-14 21:31N 39°15' E 003°01'918.5
2019-Sep-14 21:00N 39°19' E 002°50'918.0
2019-Sep-14 20:31N 39°25' E 002°42'816.6
2019-Sep-14 20:00N 39°33' E 002°39'1 1.5
2019-Sep-14 19:30N 39°33' E 002°38'0 0.0
2019-Sep-14 19:00N 39°33' E 002°38'0 0.0
2019-Sep-14 18:30N 39°33' E 002°38'0 0.0
2019-Sep-14 18:00N 39°33' E 002°38'0 0.0
2019-Sep-14 17:30N 39°33' E 002°38'0 0.0
2019-Sep-14 17:00N 39°33' E 002°38'0 0.0
2019-Sep-14 16:30N 39°33' E 002°38'0 0.0
2019-Sep-14 16:00N 39°33' E 002°38'0 0.0
2019-Sep-14 15:30N 39°33' E 002°38'0 0.0
2019-Sep-14 14:51N 39°33' E 002°38'0 0.0
2019-Sep-14 14:30N 39°33' E 002°38'0 0.0
2019-Sep-14 14:00N 39°33' E 002°38'0 0.0
2019-Sep-14 13:30N 39°33' E 002°38'0 0.0
2019-Sep-14 13:00N 39°33' E 002°38'0 0.0
2019-Sep-14 12:30N 39°33' E 002°38'0 0.0
2019-Sep-14 12:00N 39°33' E 002°38'0 0.0
2019-Sep-14 11:30N 39°33' E 002°38'0 0.0
2019-Sep-14 11:00N 39°33' E 002°38'0 0.0
2019-Sep-14 10:30N 39°33' E 002°38'0 0.0
2019-Sep-14 10:00N 39°33' E 002°38'0 0.0
2019-Sep-14 09:30N 39°33' E 002°38'0 0.0
2019-Sep-14 09:00N 39°33' E 002°38'0 0.0
2019-Sep-14 08:30N 39°33' E 002°38'0 0.0
2019-Sep-14 08:00N 39°33' E 002°38'0 0.0
2019-Sep-14 07:30N 39°33' E 002°38'0 0.0
2019-Sep-14 06:54N 39°33' E 002°38'0 0.0
2019-Sep-14 06:30N 39°33' E 002°38'0 0.0
2019-Sep-14 06:00N 39°33' E 002°38'0 0.0
2019-Sep-14 05:30N 39°33' E 002°38'0 0.0
2019-Sep-14 05:00N 39°33' E 002°38'0 0.0
2019-Sep-14 04:30N 39°33' E 002°38'0 0.0
2019-Sep-14 03:54N 39°33' E 002°38'0 1.0
2019-Sep-14 03:30N 39°33' E 002°38'3 5.9
2019-Sep-14 03:00N 39°30' E 002°37'816.4
2019-Sep-14 02:30N 39°25' E 002°29'714.6
2019-Sep-14 02:00N 39°29' E 002°21'3813.8
2019-Sep-13 23:16N 40°06' E 002°28'414.9
2019-Sep-13 23:00N 40°10' E 002°30'1316.0
2019-Sep-13 22:11N 40°22' E 002°35'816.8
2019-Sep-13 21:44N 40°29' E 002°39'1416.7
2019-Sep-13 20:54N 40°42' E 002°45'716.7
2019-Sep-13 20:30N 40°49' E 002°48'816.6
2019-Sep-13 20:01N 40°56' E 002°51'816.6
2019-Sep-13 19:31N 41°04' E 002°54'816.1
2019-Sep-13 19:01N 41°12' E 002°57'816.6
2019-Sep-13 18:31N 41°20' E 003°00'917.5
2019-Sep-13 18:01N 41°28' E 003°04'816.8
2019-Sep-13 17:30N 41°36' E 003°08'816.1
2019-Sep-13 17:01N 41°44' E 003°13'816.0
2019-Sep-13 16:30N 41°51' E 003°15'84 5.1
2019-Sep-13 00:01N 41°49' E 005°08'014.1
2019-Sep-13 00:00N 41°49' E 005°08'815.5
2019-Sep-12 23:30N 41°47' E 005°18'815.5
2019-Sep-12 23:00N 41°45' E 005°28'1015.5
2019-Sep-12 22:24N 41°43' E 005°40'615.7
2019-Sep-12 22:00N 41°41' E 005°48'815.7
2019-Sep-12 21:31N 41°39' E 005°58'815.6
2019-Sep-12 21:00N 41°37' E 006°08'815.8
2019-Sep-12 20:30N 41°35' E 006°18'815.8
2019-Sep-12 20:00N 41°33' E 006°29'815.8
2019-Sep-12 19:30N 41°31' E 006°39'815.8
2019-Sep-12 19:00N 41°29' E 006°49'1015.8
2019-Sep-12 18:21N 41°26' E 007°02'818.0
2019-Sep-12 17:54N 41°24' E 007°13'819.4
2019-Sep-12 17:30N 41°22' E 007°23'2419.6
2019-Sep-12 16:18N 41°16' E 007°53'719.8
2019-Sep-12 15:58N 41°14' E 008°02'919.9
2019-Sep-12 15:31N 41°12' E 008°13'1019.1
2019-Sep-12 15:01N 41°08' E 008°25'1618.1
2019-Sep-12 14:07N 40°52' E 008°24'1 7.9
2019-Sep-12 13:58N 40°51' E 008°23'1 1.5
2019-Sep-12 13:25N 40°50' E 008°23'0 0.0
2019-Sep-12 12:55N 40°50' E 008°23'0 0.0
2019-Sep-12 12:28N 40°50' E 008°23'0 0.0
2019-Sep-12 11:58N 40°50' E 008°23'0 0.0
2019-Sep-12 11:28N 40°50' E 008°23'0 0.0
2019-Sep-12 10:58N 40°50' E 008°23'0 0.0
2019-Sep-12 10:28N 40°50' E 008°23'0 0.0
2019-Sep-12 09:43N 40°50' E 008°23'0 0.0
2019-Sep-12 08:31N 40°50' E 008°23'0 0.0
2019-Sep-12 08:10N 40°50' E 008°23'0 0.0
2019-Sep-12 07:55N 40°50' E 008°23'0 0.0
2019-Sep-12 07:28N 40°50' E 008°23'0 0.0
2019-Sep-12 06:58N 40°50' E 008°23'1 1.1
2019-Sep-12 06:30N 40°51' E 008°23'5 9.8
2019-Sep-12 06:00N 40°54' E 008°28'815.5
2019-Sep-12 05:30N 40°59' E 008°36'815.4
2019-Sep-12 05:00N 41°04' E 008°43'814.8
2019-Sep-12 04:30N 41°09' E 008°51'814.2
2019-Sep-12 03:57N 41°15' E 008°57'715.6
2019-Sep-12 03:29N 41°19' E 009°06'3113.2
2019-Sep-12 01:08N 41°35' E 009°41'  

Dump ship's entire track history